createdAt,value
2023-12-02T00:01:27.391Z,20.80
2023-12-02T00:03:56.237Z,21.10
2023-12-02T00:06:24.902Z,19.63
2023-12-02T00:08:53.747Z,20.00
2023-12-02T00:11:23.753Z,19.98
2023-12-02T00:13:53.178Z,20.88
2023-12-02T00:16:21.853Z,20.05
2023-12-02T00:18:51.300Z,18.58
2023-12-02T00:21:20.256Z,20.17
2023-12-02T00:23:48.952Z,20.80
2023-12-02T00:26:17.600Z,19.10
2023-12-02T00:28:58.268Z,20.17
2023-12-02T00:31:26.997Z,19.55
2023-12-02T00:33:57.936Z,20.60
2023-12-02T00:36:26.626Z,19.90
2023-12-02T00:38:55.224Z,19.85
2023-12-02T00:41:23.956Z,20.45
2023-12-02T00:43:52.435Z,20.77
2023-12-02T00:46:23.088Z,19.63
2023-12-02T00:48:52.050Z,21.73
2023-12-02T00:51:20.790Z,20.15
2023-12-02T00:53:49.745Z,20.33
2023-12-02T00:56:19.417Z,23.25
2023-12-02T00:58:48.237Z,21.33
2023-12-02T01:01:16.988Z,22.67
2023-12-02T01:03:47.169Z,23.10
2023-12-02T01:06:15.881Z,24.77
2023-12-02T01:08:44.660Z,27.75
2023-12-02T01:11:13.468Z,24.58
2023-12-02T01:13:42.087Z,27.00
2023-12-02T01:16:11.746Z,26.42
2023-12-02T01:18:40.301Z,25.98
2023-12-02T01:21:10.919Z,24.63
2023-12-02T01:23:39.503Z,25.67
2023-12-02T01:26:08.729Z,24.48
2023-12-02T01:28:37.235Z,27.02
2023-12-02T01:31:06.007Z,24.95
2023-12-02T01:33:34.619Z,27.50
2023-12-02T01:36:03.507Z,26.10
2023-12-02T01:38:33.497Z,24.40
2023-12-02T01:41:02.090Z,22.73
2023-12-02T01:43:30.720Z,23.48
2023-12-02T01:45:59.302Z,21.80
2023-12-02T01:48:32.008Z,22.58
2023-12-02T01:51:01.578Z,21.42
2023-12-02T01:53:30.283Z,22.65
2023-12-02T01:56:00.500Z,23.80
2023-12-02T01:58:29.712Z,21.63
2023-12-02T02:00:58.206Z,20.88
2023-12-02T02:03:26.802Z,21.40
2023-12-02T02:05:55.551Z,21.90
2023-12-02T02:08:24.243Z,22.20
2023-12-02T02:10:57.417Z,21.98
2023-12-02T02:13:27.536Z,21.60
2023-12-02T02:15:57.005Z,20.55
2023-12-02T02:18:25.832Z,21.48
2023-12-02T02:20:55.549Z,20.40
2023-12-02T02:23:25.939Z,22.60
2023-12-02T02:25:55.508Z,20.70
2023-12-02T02:28:24.959Z,19.67
2023-12-02T02:30:54.065Z,18.88
2023-12-02T02:33:23.173Z,19.25
2023-12-02T02:35:51.772Z,19.88
2023-12-02T02:38:20.262Z,19.42
2023-12-02T02:40:50.221Z,22.10
2023-12-02T02:43:19.022Z,21.27
2023-12-02T02:45:47.807Z,20.77
2023-12-02T02:48:16.466Z,22.00
2023-12-02T02:50:45.428Z,21.67
2023-12-02T02:53:14.031Z,22.35
2023-12-02T02:55:43.781Z,20.65
2023-12-02T02:58:14.123Z,20.35
2023-12-02T03:00:42.710Z,21.88
2023-12-02T03:03:10.199Z,22.15
2023-12-02T03:05:39.287Z,22.33
2023-12-02T03:08:07.897Z,19.52
2023-12-02T03:10:36.588Z,21.05
2023-12-02T03:13:05.088Z,20.42
2023-12-02T03:15:35.228Z,19.88
2023-12-02T03:18:04.152Z,19.08
2023-12-02T03:20:32.735Z,19.95
2023-12-02T03:23:01.288Z,19.83
2023-12-02T03:25:29.883Z,21.65
2023-12-02T03:27:58.523Z,25.63
2023-12-02T03:30:27.090Z,25.50
2023-12-02T03:32:57.177Z,21.05
2023-12-02T03:35:25.934Z,20.95
2023-12-02T03:37:54.621Z,19.35
2023-12-02T03:40:23.081Z,20.27
2023-12-02T03:42:51.806Z,19.63
2023-12-02T03:45:20.421Z,20.13
2023-12-02T03:47:49.118Z,20.25
2023-12-02T03:50:20.280Z,20.42
2023-12-02T03:52:49.244Z,18.63
2023-12-02T03:55:19.666Z,19.85
2023-12-02T03:57:48.323Z,19.30
2023-12-02T04:00:20.712Z,19.80
2023-12-02T04:02:49.609Z,18.20
2023-12-02T04:05:19.721Z,17.55
2023-12-02T04:07:48.507Z,17.77
2023-12-02T04:10:17.096Z,17.67
2023-12-02T04:12:45.873Z,18.00
2023-12-02T04:15:14.451Z,17.38
2023-12-02T04:17:43.585Z,17.23
2023-12-02T04:20:16.480Z,17.77
2023-12-02T04:22:46.521Z,17.50
2023-12-02T04:25:15.480Z,18.58
2023-12-02T04:27:44.367Z,17.10
2023-12-02T04:30:13.535Z,17.35
2023-12-02T04:32:42.383Z,17.23
2023-12-02T04:35:11.711Z,17.70
2023-12-02T04:37:40.297Z,16.88
2023-12-02T04:40:13.039Z,18.95
2023-12-02T04:42:42.035Z,20.63
2023-12-02T04:45:11.756Z,20.15
2023-12-02T04:47:41.169Z,18.67
2023-12-02T04:50:16.887Z,21.05
2023-12-02T04:53:00.447Z,22.63
2023-12-02T04:55:30.842Z,26.25
2023-12-02T04:57:59.515Z,22.83
2023-12-02T05:00:28.892Z,23.92
2023-12-02T05:02:57.660Z,22.77
2023-12-02T05:05:26.316Z,24.50
2023-12-02T05:07:54.843Z,22.88
2023-12-02T05:10:23.433Z,28.20
2023-12-02T05:12:53.419Z,26.45
2023-12-02T05:15:22.826Z,26.20
2023-12-02T05:17:52.295Z,24.33
2023-12-02T05:20:21.893Z,23.40
2023-12-02T05:22:51.280Z,23.55
2023-12-02T05:25:20.023Z,23.38
2023-12-02T05:27:48.570Z,21.80
2023-12-02T05:30:19.418Z,22.25
2023-12-02T05:32:48.164Z,26.60
2023-12-02T05:35:16.905Z,33.03
2023-12-02T05:37:45.482Z,32.50
2023-12-02T05:40:14.613Z,26.75
2023-12-02T05:42:43.186Z,28.80
2023-12-02T05:45:12.681Z,28.95
2023-12-02T05:47:42.907Z,29.58
2023-12-02T05:50:12.082Z,28.30
2023-12-02T05:52:40.870Z,27.50
2023-12-02T05:55:11.196Z,25.98
2023-12-02T05:57:40.133Z,28.38
2023-12-02T06:00:09.681Z,27.20
2023-12-02T06:02:38.294Z,26.20
2023-12-02T06:05:09.334Z,26.17
2023-12-02T06:07:38.011Z,24.77
2023-12-02T06:10:08.758Z,23.98
2023-12-02T06:12:37.658Z,25.88
2023-12-02T06:15:08.255Z,27.88
2023-12-02T06:17:36.964Z,26.35
2023-12-02T06:20:08.168Z,27.85
2023-12-02T06:22:36.806Z,26.35
2023-12-02T06:25:05.986Z,28.63
2023-12-02T06:27:34.660Z,28.17
2023-12-02T06:30:03.317Z,26.52
2023-12-02T06:32:33.476Z,30.25
2023-12-02T06:35:02.228Z,27.95
2023-12-02T06:37:34.437Z,29.30
2023-12-02T06:40:03.156Z,29.05
2023-12-02T06:42:33.283Z,30.70
2023-12-02T06:45:02.133Z,34.40
2023-12-02T06:47:32.615Z,40.50
2023-12-02T06:50:01.238Z,35.50
2023-12-02T06:52:29.890Z,35.25
2023-12-02T06:57:32.613Z,32.80
2023-12-02T07:00:01.661Z,35.25
2023-12-02T07:02:32.620Z,34.45
2023-12-02T07:05:01.431Z,42.25
2023-12-02T07:07:30.439Z,43.55
2023-12-02T07:10:00.635Z,60.92
2023-12-02T07:12:29.190Z,68.07
2023-12-02T07:14:57.851Z,57.65
2023-12-02T07:17:26.418Z,63.53
2023-12-02T07:19:55.157Z,54.90
2023-12-02T07:22:23.718Z,53.83
2023-12-02T07:24:52.553Z,51.05
2023-12-02T07:27:23.126Z,50.97
2023-12-02T07:32:26.818Z,50.83
2023-12-02T07:34:55.687Z,48.72
2023-12-02T07:37:24.455Z,47.92
2023-12-02T07:39:53.302Z,45.38
2023-12-02T07:42:23.411Z,45.00
2023-12-02T07:44:52.186Z,43.88
2023-12-02T07:47:20.844Z,41.13
2023-12-02T07:49:49.688Z,41.58
2023-12-02T07:52:18.259Z,40.42
2023-12-02T07:54:46.974Z,36.25
2023-12-02T07:57:15.545Z,37.67
2023-12-02T07:59:45.564Z,40.00
2023-12-02T08:02:14.396Z,44.72
2023-12-02T08:04:43.133Z,41.05
2023-12-02T08:07:11.871Z,48.15
2023-12-02T08:09:40.576Z,46.35
2023-12-02T08:12:09.877Z,45.13
2023-12-02T08:14:38.437Z,41.40
2023-12-02T08:17:09.031Z,42.33
2023-12-02T08:19:38.187Z,41.72
2023-12-02T08:22:06.920Z,41.55
2023-12-02T08:24:37.603Z,45.88
2023-12-02T08:27:06.467Z,45.33
2023-12-02T08:29:35.066Z,42.45
2023-12-02T08:32:04.542Z,36.67
2023-12-02T08:34:34.748Z,34.97
2023-12-02T08:37:03.273Z,33.70
2023-12-02T08:39:31.776Z,31.00
2023-12-02T08:42:00.285Z,27.85
2023-12-02T08:44:29.067Z,27.67
2023-12-02T08:47:00.174Z,29.83
2023-12-02T08:49:28.891Z,30.10
2023-12-02T08:51:58.915Z,31.77
2023-12-02T08:54:27.629Z,31.75
2023-12-02T08:56:56.716Z,32.65
2023-12-02T08:59:25.418Z,44.35
2023-12-02T09:01:54.358Z,45.75
2023-12-02T09:04:22.965Z,46.30
2023-12-02T09:06:51.433Z,40.55
2023-12-02T09:09:21.475Z,40.15
2023-12-02T09:11:51.640Z,39.00
2023-12-02T09:14:21.419Z,44.08
2023-12-02T09:16:51.706Z,39.75
2023-12-02T09:19:53.787Z,39.25
2023-12-02T09:22:50.653Z,40.05
2023-12-02T09:25:30.641Z,41.13
2023-12-02T09:28:35.370Z,43.17
2023-12-02T09:31:10.033Z,41.13
2023-12-02T09:33:41.513Z,39.50
2023-12-02T09:36:28.047Z,39.67
2023-12-02T09:38:56.808Z,40.80
2023-12-02T09:41:47.863Z,38.22
2023-12-02T09:44:26.269Z,39.67
2023-12-02T09:47:05.695Z,42.55
2023-12-02T09:50:01.498Z,43.15
2023-12-02T09:52:49.530Z,38.92
2023-12-02T09:55:23.322Z,34.55
2023-12-02T09:58:02.600Z,34.63
2023-12-02T10:00:41.706Z,31.10
2023-12-02T10:03:31.768Z,29.70
2023-12-02T10:06:27.987Z,28.65
2023-12-02T10:09:03.992Z,32.75
2023-12-02T10:11:40.761Z,33.63
2023-12-02T10:14:13.408Z,32.95
2023-12-02T10:16:43.548Z,28.88
2023-12-02T10:19:14.617Z,28.80
2023-12-02T10:21:48.134Z,27.10
2023-12-02T10:24:24.934Z,29.42
2023-12-02T10:27:00.753Z,29.88
2023-12-02T10:29:36.608Z,32.63
2023-12-02T10:32:14.508Z,31.67
2023-12-02T10:34:53.327Z,31.63
2023-12-02T10:37:27.420Z,32.83
2023-12-02T10:39:59.333Z,30.20
2023-12-02T10:42:32.122Z,28.23
2023-12-02T10:45:06.680Z,30.80
2023-12-02T10:47:35.991Z,36.97
2023-12-02T10:50:06.452Z,35.53
2023-12-02T10:55:10.493Z,37.72
2023-12-02T10:57:40.745Z,30.52
2023-12-02T11:00:13.643Z,30.45
2023-12-02T11:02:52.553Z,27.25
2023-12-02T11:05:26.601Z,28.38
2023-12-02T11:07:57.085Z,26.05
2023-12-02T11:10:35.429Z,26.85
2023-12-02T11:16:15.864Z,24.42
2023-12-02T11:19:12.063Z,23.58
2023-12-02T11:22:01.901Z,23.40
2023-12-02T11:24:46.206Z,26.40
2023-12-02T11:27:29.131Z,28.17
2023-12-02T11:30:12.457Z,27.67
2023-12-02T11:32:58.497Z,27.67
2023-12-02T11:35:38.423Z,35.92
2023-12-02T11:38:18.364Z,28.85
2023-12-02T11:41:00.665Z,26.77
2023-12-02T11:43:43.761Z,24.58
2023-12-02T11:46:20.097Z,31.30
2023-12-02T11:49:00.383Z,33.15
2023-12-02T11:51:50.898Z,32.35
2023-12-02T11:54:30.415Z,40.28
2023-12-02T11:57:19.157Z,44.97
2023-12-02T12:00:05.025Z,43.97
2023-12-02T12:03:20.502Z,57.40
2023-12-02T12:06:00.278Z,50.15
2023-12-02T12:08:38.255Z,51.72
2023-12-02T12:11:13.562Z,42.95
2023-12-02T12:13:42.687Z,41.60
2023-12-02T12:16:11.799Z,41.08
2023-12-02T12:18:40.390Z,40.63
2023-12-02T12:21:11.532Z,41.28
2023-12-02T12:23:40.376Z,42.75
2023-12-02T12:26:09.327Z,43.22
2023-12-02T12:28:40.518Z,41.75
2023-12-02T12:31:12.843Z,40.42
2023-12-02T12:33:41.883Z,42.88
2023-12-02T12:36:13.235Z,44.15
2023-12-02T12:38:41.862Z,40.55
2023-12-02T12:41:10.676Z,39.30
2023-12-02T12:43:39.542Z,43.20
2023-12-02T12:46:13.041Z,42.15
2023-12-02T12:48:41.766Z,47.60
2023-12-02T12:51:14.212Z,45.80
2023-12-02T12:53:53.343Z,43.10
2023-12-02T12:56:32.025Z,46.67
2023-12-02T12:59:01.952Z,45.13
2023-12-02T13:01:34.801Z,45.95
2023-12-02T13:04:07.996Z,42.03
2023-12-02T13:06:46.490Z,43.30
2023-12-02T13:09:15.715Z,40.58
2023-12-02T13:11:59.724Z,44.70
2023-12-02T13:14:36.710Z,43.65
2023-12-02T13:17:06.445Z,41.28
2023-12-02T13:19:38.227Z,42.78
2023-12-02T13:22:09.437Z,44.70
2023-12-02T13:24:41.573Z,48.17
2023-12-02T13:27:16.796Z,44.45
2023-12-02T13:29:48.217Z,47.72
2023-12-02T13:32:17.985Z,43.45
2023-12-02T13:34:51.820Z,41.78
2023-12-02T13:37:31.631Z,42.72
2023-12-02T13:40:01.857Z,39.03
2023-12-02T13:42:39.166Z,43.42
2023-12-02T13:45:11.984Z,41.58
2023-12-02T13:47:54.507Z,42.47
2023-12-02T13:50:25.298Z,39.97
2023-12-02T13:53:10.349Z,45.25
2023-12-02T13:55:54.711Z,44.90
2023-12-02T13:58:24.006Z,48.28
2023-12-02T14:01:14.897Z,53.42
2023-12-02T14:04:02.108Z,48.20
2023-12-02T14:06:43.791Z,49.05
2023-12-02T14:09:22.053Z,51.28
2023-12-02T14:14:48.602Z,84.80
2023-12-02T14:17:29.428Z,80.65
2023-12-02T14:20:19.127Z,93.40
2023-12-02T14:23:17.002Z,98.40
2023-12-02T14:26:08.860Z,90.53
2023-12-02T14:28:52.693Z,93.60
2023-12-02T14:31:44.108Z,86.88
2023-12-02T14:34:32.068Z,88.60
2023-12-02T14:37:20.109Z,89.03
2023-12-02T14:40:04.403Z,77.25
2023-12-02T14:42:47.802Z,71.80
2023-12-02T14:45:18.683Z,57.45
2023-12-02T14:47:47.594Z,63.65
2023-12-02T14:50:16.464Z,39.67
2023-12-02T14:52:46.115Z,43.75
2023-12-02T14:55:16.152Z,51.85
2023-12-02T14:57:46.181Z,46.33
2023-12-02T15:00:17.224Z,57.67
2023-12-02T15:02:52.365Z,56.55
2023-12-02T15:05:22.537Z,48.70
2023-12-02T15:07:54.683Z,47.50
2023-12-02T15:10:33.479Z,51.90
2023-12-02T15:13:12.231Z,51.88
2023-12-02T15:15:43.410Z,48.90
2023-12-02T15:18:16.981Z,46.38
2023-12-02T15:21:04.437Z,43.90
2023-12-02T15:23:38.284Z,43.90
2023-12-02T15:26:11.158Z,43.80
2023-12-02T15:28:50.289Z,39.03
2023-12-02T15:31:33.870Z,43.95
2023-12-02T15:34:05.152Z,45.95
2023-12-02T15:36:33.963Z,40.35
2023-12-02T15:39:02.692Z,36.85
2023-12-02T15:41:31.748Z,36.45
2023-12-02T15:44:02.003Z,37.35
2023-12-02T15:46:30.827Z,37.03
2023-12-02T15:49:00.492Z,33.08
2023-12-02T15:51:31.899Z,35.47
2023-12-02T15:54:01.905Z,34.75
2023-12-02T15:56:32.855Z,37.08
2023-12-02T15:59:03.157Z,35.10
2023-12-02T16:01:31.857Z,38.58
2023-12-02T16:04:01.990Z,48.00
2023-12-02T16:06:33.026Z,49.40
2023-12-02T16:09:02.964Z,42.33
2023-12-02T16:11:36.737Z,42.03
2023-12-02T16:14:07.481Z,38.97
2023-12-02T16:16:38.935Z,40.72
2023-12-02T16:19:08.353Z,40.50
2023-12-02T16:21:37.241Z,42.28
2023-12-02T16:24:07.504Z,48.90
2023-12-02T16:26:38.457Z,48.35
2023-12-02T16:29:08.956Z,50.40
2023-12-02T16:31:38.306Z,43.03
2023-12-02T16:34:07.354Z,48.70
2023-12-02T16:36:38.256Z,46.08
2023-12-02T16:39:11.603Z,44.88
2023-12-02T16:41:40.458Z,42.65
2023-12-02T16:44:10.574Z,34.90
2023-12-02T16:46:42.453Z,33.92
2023-12-02T16:49:18.354Z,35.00
2023-12-02T16:51:47.338Z,35.17
2023-12-02T16:54:16.698Z,32.85
2023-12-02T16:56:45.859Z,32.85
2023-12-02T16:59:48.253Z,32.95
2023-12-02T17:02:31.515Z,32.75
2023-12-02T17:05:00.213Z,31.13
2023-12-02T17:07:30.126Z,31.23
2023-12-02T17:09:58.664Z,30.98
2023-12-02T17:12:27.695Z,29.13
2023-12-02T17:15:07.089Z,29.02
2023-12-02T17:17:35.808Z,28.42
2023-12-02T17:20:14.714Z,28.35
2023-12-02T17:22:43.951Z,29.33
2023-12-02T17:25:48.107Z,30.00
2023-12-02T17:28:17.623Z,32.05
2023-12-02T17:30:47.518Z,32.03
2023-12-02T17:33:16.255Z,29.85
2023-12-02T17:35:44.856Z,29.83
2023-12-02T17:38:13.375Z,29.42
2023-12-02T17:40:42.001Z,29.75
2023-12-02T17:43:10.502Z,28.73
2023-12-02T17:45:43.732Z,26.90
2023-12-02T17:48:15.356Z,28.40
2023-12-02T17:50:43.999Z,27.45
2023-12-02T17:53:12.644Z,25.20
2023-12-02T17:55:41.244Z,25.67
2023-12-02T17:58:10.004Z,26.27
2023-12-02T18:00:41.337Z,27.90
2023-12-02T18:03:11.141Z,29.35
2023-12-02T18:05:41.386Z,30.33
2023-12-02T18:08:10.915Z,28.00
2023-12-02T18:10:39.478Z,28.45
2023-12-02T18:13:08.049Z,25.55
2023-12-02T18:15:38.805Z,27.58
2023-12-02T18:18:07.696Z,27.80
2023-12-02T18:20:36.587Z,26.48
2023-12-02T18:23:08.466Z,26.88
2023-12-02T18:25:37.099Z,27.20
2023-12-02T18:28:05.906Z,27.38
2023-12-02T18:30:34.899Z,27.13
2023-12-02T18:33:03.595Z,25.35
2023-12-02T18:35:32.173Z,25.63
2023-12-02T18:38:00.904Z,27.15
2023-12-02T18:40:32.715Z,27.70
2023-12-02T18:43:01.264Z,27.92
2023-12-02T18:45:33.122Z,27.27
2023-12-02T18:48:02.873Z,30.30
2023-12-02T18:50:31.580Z,29.38
2023-12-02T18:53:00.307Z,27.98
2023-12-02T18:55:30.453Z,25.27
2023-12-02T18:57:59.084Z,24.55
2023-12-02T19:00:29.069Z,23.55
2023-12-02T19:02:58.207Z,26.67
2023-12-02T19:05:26.834Z,26.73
2023-12-02T19:07:55.460Z,25.50
2023-12-02T19:10:24.000Z,24.25
2023-12-02T19:12:53.995Z,23.73
2023-12-02T19:15:22.666Z,24.80
2023-12-02T19:17:52.093Z,26.83
2023-12-02T19:20:21.047Z,32.38
2023-12-02T19:22:51.906Z,33.05
2023-12-02T19:25:20.370Z,34.33
2023-12-02T19:27:48.942Z,47.35
2023-12-02T19:30:19.219Z,46.15
2023-12-02T19:32:47.646Z,48.38
2023-12-02T19:35:16.954Z,42.15
2023-12-02T19:37:45.641Z,45.45
2023-12-02T19:40:14.550Z,43.72
2023-12-02T19:42:43.230Z,40.67
2023-12-02T19:45:11.965Z,36.20
2023-12-02T19:47:42.084Z,36.22
2023-12-02T19:50:13.175Z,32.53
2023-12-02T19:52:42.065Z,29.23
2023-12-02T19:55:10.755Z,28.65
2023-12-02T19:57:39.451Z,28.90
2023-12-02T20:00:10.080Z,29.73
2023-12-02T20:02:40.195Z,30.23
2023-12-02T20:05:13.128Z,29.60
2023-12-02T20:07:42.179Z,29.05
2023-12-02T20:10:11.522Z,29.90
2023-12-02T20:12:40.193Z,28.25
2023-12-02T20:15:11.521Z,27.65
2023-12-02T20:17:40.327Z,25.23
2023-12-02T20:20:11.934Z,25.05
2023-12-02T20:22:40.442Z,25.10
2023-12-02T20:25:09.846Z,25.83
2023-12-02T20:27:38.598Z,26.73
2023-12-02T20:30:08.927Z,27.13
2023-12-02T20:32:37.636Z,29.08
2023-12-02T20:35:07.303Z,26.98
2023-12-02T20:37:37.515Z,26.55
2023-12-02T20:40:07.434Z,26.67
2023-12-02T20:42:35.987Z,26.38
2023-12-02T20:45:06.007Z,23.70
2023-12-02T20:47:36.664Z,25.17
2023-12-02T20:50:06.103Z,23.90
2023-12-02T20:52:34.768Z,23.63
2023-12-02T20:55:04.749Z,22.75
2023-12-02T20:57:33.482Z,22.55
2023-12-02T21:00:02.167Z,21.85
2023-12-02T21:02:35.656Z,21.33
2023-12-02T21:05:04.477Z,20.48
2023-12-02T21:07:33.125Z,21.33
2023-12-02T21:10:01.932Z,20.70
2023-12-02T21:12:35.835Z,20.20
2023-12-02T21:15:05.576Z,21.30
2023-12-02T21:17:34.810Z,21.50
2023-12-02T21:20:03.427Z,19.58
2023-12-02T21:22:32.497Z,19.33
2023-12-02T21:25:01.955Z,19.30
2023-12-02T21:27:34.399Z,18.40
2023-12-02T21:30:04.848Z,18.00
2023-12-02T21:32:35.390Z,20.35
2023-12-02T21:35:11.268Z,23.05
2023-12-02T21:37:40.518Z,20.88
2023-12-02T21:40:11.121Z,21.10
2023-12-02T21:42:41.060Z,19.60
2023-12-02T21:45:33.840Z,18.67
2023-12-02T21:48:06.096Z,20.27
2023-12-02T21:50:35.298Z,20.65
2023-12-02T21:53:03.792Z,20.08
2023-12-02T21:55:32.571Z,21.00
2023-12-02T21:58:03.080Z,21.83
2023-12-02T22:00:31.988Z,21.00
2023-12-02T22:03:06.062Z,18.55
2023-12-02T22:05:36.609Z,16.27
2023-12-02T22:08:07.876Z,16.42
2023-12-02T22:10:39.819Z,16.35
2023-12-02T22:13:17.616Z,18.10
2023-12-02T22:15:47.333Z,16.80
2023-12-02T22:18:17.537Z,16.98
2023-12-02T22:20:46.191Z,16.58
2023-12-02T22:23:16.119Z,15.75
2023-12-02T22:25:46.055Z,16.52
2023-12-02T22:28:19.100Z,16.65
2023-12-02T22:30:49.799Z,16.27
2023-12-02T22:33:22.410Z,17.83
2023-12-02T22:35:56.881Z,18.10
2023-12-02T22:38:35.673Z,18.02
2023-12-02T22:41:04.712Z,18.42
2023-12-02T22:43:41.100Z,17.80
2023-12-02T22:46:11.507Z,17.70
2023-12-02T22:48:41.733Z,17.95
2023-12-02T22:51:15.876Z,16.15
2023-12-02T22:53:44.815Z,16.13
2023-12-02T22:56:13.873Z,15.57
2023-12-02T22:58:47.429Z,16.17
2023-12-02T23:01:21.771Z,16.60
2023-12-02T23:03:52.501Z,17.77
2023-12-02T23:06:28.640Z,16.85
2023-12-02T23:08:57.846Z,17.25
2023-12-02T23:11:50.133Z,18.98
2023-12-02T23:14:38.574Z,17.58
2023-12-02T23:17:07.488Z,18.30
2023-12-02T23:19:37.884Z,18.42
2023-12-02T23:22:08.303Z,17.58
2023-12-02T23:24:38.412Z,19.50
2023-12-02T23:27:08.231Z,18.40
2023-12-02T23:29:40.348Z,18.05
2023-12-02T23:32:09.115Z,17.55
2023-12-02T23:34:37.712Z,16.00
2023-12-02T23:37:06.410Z,16.55
2023-12-02T23:39:35.032Z,16.00
2023-12-02T23:42:04.780Z,13.98
2023-12-02T23:44:44.705Z,14.73
2023-12-02T23:47:18.981Z,15.27
2023-12-02T23:49:47.772Z,16.48
2023-12-02T23:52:16.671Z,16.48
2023-12-02T23:54:45.406Z,15.85
2023-12-02T23:57:14.595Z,15.55
2023-12-02T23:59:45.292Z,15.90
